createdAt,value
2023-08-07T00:00:10.950Z,2.70
2023-08-07T00:02:59.792Z,2.50
2023-08-07T00:05:43.730Z,2.30
2023-08-07T00:08:12.267Z,2.20
2023-08-07T00:10:41.305Z,2.60
2023-08-07T00:13:09.949Z,2.50
2023-08-07T00:15:42.025Z,2.50
2023-08-07T00:18:10.792Z,2.40
2023-08-07T00:26:20.268Z,3.30
2023-08-07T00:33:39.337Z,2.70
2023-08-07T00:37:29.037Z,2.60
2023-08-07T00:41:18.328Z,2.70
2023-08-07T00:44:57.968Z,3.20
2023-08-07T00:48:47.176Z,2.60
2023-08-07T00:57:17.487Z,3.70
2023-08-07T01:01:27.987Z,2.90
2023-08-07T01:05:18.408Z,3.20
2023-08-07T01:11:52.957Z,3.00
2023-08-07T01:14:45.196Z,3.20
2023-08-07T01:17:20.796Z,3.50
2023-08-07T01:19:53.739Z,2.40
2023-08-07T01:22:23.078Z,2.90
2023-08-07T01:30:52.077Z,3.10
2023-08-07T01:34:50.650Z,3.30
2023-08-07T01:38:33.222Z,3.30
2023-08-07T01:42:06.518Z,3.10
2023-08-07T01:45:54.469Z,2.50
2023-08-07T01:49:36.314Z,2.50
2023-08-07T01:53:26.252Z,2.80
2023-08-07T01:57:19.412Z,3.10
2023-08-07T02:00:32.745Z,2.80
2023-08-07T02:03:01.248Z,3.50
2023-08-07T02:05:29.861Z,3.40
2023-08-07T02:07:59.066Z,3.30
2023-08-07T02:10:29.422Z,3.70
2023-08-07T02:14:26.938Z,3.30
2023-08-07T02:18:16.391Z,3.40
2023-08-07T02:22:05.722Z,3.00
2023-08-07T02:25:55.226Z,2.80
2023-08-07T02:29:44.665Z,2.60
2023-08-07T02:33:34.092Z,2.40
2023-08-07T02:37:16.751Z,2.40
2023-08-07T02:41:06.292Z,2.70
2023-08-07T02:44:29.855Z,2.30
2023-08-07T02:48:13.276Z,2.80
2023-08-07T02:51:37.717Z,3.80
2023-08-07T02:55:26.995Z,3.20
2023-08-07T02:59:17.418Z,3.40
2023-08-07T03:03:00.900Z,3.10
2023-08-07T03:10:03.469Z,4.50
2023-08-07T03:13:51.144Z,1.90
2023-08-07T03:23:04.770Z,2.40
2023-08-07T03:25:33.252Z,3.20
2023-08-07T03:28:02.130Z,2.80
2023-08-07T03:30:30.763Z,3.50
2023-08-07T03:32:59.775Z,3.50
2023-08-07T03:36:14.937Z,3.00
2023-08-07T03:38:44.028Z,3.60
2023-08-07T03:41:13.164Z,2.70
2023-08-07T03:49:42.980Z,2.80
2023-08-07T03:52:11.963Z,3.10
2023-08-07T03:54:41.265Z,2.30
2023-08-07T03:57:12.611Z,2.20
2023-08-07T03:59:42.318Z,2.90
2023-08-07T04:02:14.329Z,2.20
2023-08-07T04:05:15.422Z,2.40
2023-08-07T04:07:44.007Z,2.50
2023-08-07T04:10:12.807Z,2.60
2023-08-07T04:12:41.843Z,2.60
2023-08-07T04:20:13.460Z,2.60
2023-08-07T04:22:55.107Z,2.70
2023-08-07T04:29:49.972Z,3.40
2023-08-07T04:33:11.763Z,3.20
2023-08-07T04:36:23.261Z,2.90
2023-08-07T04:39:26.285Z,2.10
2023-08-07T04:45:19.673Z,2.60
2023-08-07T04:51:24.523Z,2.00
2023-08-07T05:02:05.610Z,3.20
2023-08-07T05:06:12.230Z,2.20
2023-08-07T05:10:02.163Z,3.20
2023-08-07T05:13:51.907Z,2.30
2023-08-07T05:17:41.327Z,3.30
2023-08-07T05:21:33.708Z,3.00
2023-08-07T05:25:23.264Z,3.70
2023-08-07T05:29:12.780Z,3.00
2023-08-07T05:32:54.823Z,2.70
2023-08-07T05:36:44.526Z,2.10
2023-08-07T05:40:34.209Z,2.40
2023-08-07T05:44:23.953Z,2.30
2023-08-07T05:48:13.528Z,3.10
2023-08-07T05:52:03.071Z,2.80
2023-08-07T05:55:49.955Z,3.10
2023-08-07T05:59:39.462Z,2.10
2023-08-07T06:03:29.139Z,2.90
2023-08-07T06:07:18.922Z,2.60
2023-08-07T06:11:08.715Z,3.00
2023-08-07T06:14:58.503Z,2.70
2023-08-07T06:18:46.792Z,2.50
2023-08-07T06:22:36.668Z,2.90
2023-08-07T06:26:26.124Z,2.50
2023-08-07T06:30:15.945Z,3.40
2023-08-07T06:34:05.803Z,3.40
2023-08-07T06:37:55.209Z,3.30
2023-08-07T06:41:44.799Z,2.60
2023-08-07T06:45:34.118Z,3.10
2023-08-07T06:49:23.802Z,3.90
2023-08-07T06:53:13.764Z,2.40
2023-08-07T06:57:03.392Z,5.50
2023-08-07T07:00:53.414Z,4.10
2023-08-07T07:04:42.998Z,3.50
2023-08-07T07:08:32.534Z,3.70
2023-08-07T07:12:22.157Z,4.00
2023-08-07T07:16:12.569Z,3.90
2023-08-07T07:20:02.154Z,4.00
2023-08-07T07:23:51.819Z,5.40
2023-08-07T07:27:41.314Z,3.00
2023-08-07T07:31:33.513Z,4.40
2023-08-07T07:35:16.169Z,3.90
2023-08-07T07:39:06.869Z,3.40
2023-08-07T07:42:55.221Z,4.80
2023-08-07T07:46:44.921Z,3.30
2023-08-07T07:50:34.437Z,4.10
2023-08-07T07:54:23.929Z,5.00
2023-08-07T07:58:13.260Z,3.70
2023-08-07T08:02:02.684Z,3.40
2023-08-07T08:05:52.302Z,3.40
2023-08-07T08:09:41.981Z,3.70
2023-08-07T08:13:31.684Z,5.30
2023-08-07T08:17:14.075Z,3.90
2023-08-07T08:21:03.413Z,3.10
2023-08-07T08:24:52.943Z,3.50
2023-08-07T08:28:41.359Z,3.90
2023-08-07T08:32:30.828Z,4.10
2023-08-07T08:36:20.457Z,3.60
2023-08-07T08:40:10.031Z,3.20
2023-08-07T08:43:59.506Z,3.00
2023-08-07T08:47:48.998Z,3.40
2023-08-07T08:51:38.411Z,3.50
2023-08-07T08:55:27.945Z,4.70
2023-08-07T08:59:17.542Z,4.00
2023-08-07T09:03:07.198Z,4.10
2023-08-07T09:06:57.193Z,3.80
2023-08-07T09:10:47.138Z,5.70
2023-08-07T09:14:36.672Z,3.30
2023-08-07T09:18:26.187Z,3.00
2023-08-07T09:22:15.619Z,5.50
2023-08-07T09:26:10.992Z,3.20
2023-08-07T09:30:00.511Z,3.80
2023-08-07T09:33:49.952Z,4.60
2023-08-07T09:37:39.602Z,3.70
2023-08-07T09:41:29.315Z,3.80
2023-08-07T09:45:18.848Z,3.40
2023-08-07T09:49:05.934Z,3.80
2023-08-07T09:52:48.742Z,3.90
2023-08-07T09:56:38.160Z,3.80
2023-08-07T10:00:28.291Z,3.20
2023-08-07T10:04:17.833Z,3.70
2023-08-07T10:08:05.780Z,4.00
2023-08-07T10:11:55.477Z,5.30
2023-08-07T10:15:44.940Z,4.10
2023-08-07T10:19:34.418Z,4.50
2023-08-07T10:23:21.542Z,4.30
2023-08-07T10:27:11.238Z,4.60
2023-08-07T10:30:52.274Z,4.10
2023-08-07T10:38:01.672Z,3.20
2023-08-07T10:41:52.481Z,3.80
2023-08-07T10:45:41.952Z,2.80
2023-08-07T10:49:37.106Z,3.30
2023-08-07T10:53:27.008Z,2.80
2023-08-07T10:57:37.543Z,3.10
2023-08-07T11:01:30.296Z,2.60
2023-08-07T11:05:20.038Z,3.20
2023-08-07T11:09:10.032Z,2.60
2023-08-07T11:13:00.021Z,3.00
2023-08-07T11:16:49.648Z,2.20
2023-08-07T11:20:39.362Z,3.10
2023-08-07T11:24:29.012Z,2.50
2023-08-07T11:28:18.643Z,4.20
2023-08-07T11:32:10.066Z,3.00
2023-08-07T11:36:01.657Z,2.60
2023-08-07T11:39:51.469Z,2.60
2023-08-07T11:43:41.297Z,3.60
2023-08-07T11:47:31.075Z,3.30
2023-08-07T11:51:20.730Z,4.30
2023-08-07T11:55:11.141Z,3.40
2023-08-07T11:59:01.536Z,3.50
2023-08-07T12:02:58.916Z,2.60
2023-08-07T12:06:49.605Z,2.80
2023-08-07T12:11:01.090Z,2.90
2023-08-07T12:14:50.419Z,2.80
2023-08-07T12:18:43.073Z,3.80
2023-08-07T12:22:32.707Z,2.90
2023-08-07T12:26:42.560Z,2.40
2023-08-07T12:30:32.299Z,2.30
2023-08-07T12:38:15.770Z,4.80
2023-08-07T12:46:31.508Z,3.70
2023-08-07T12:50:08.206Z,2.30
2023-08-07T12:56:39.166Z,2.30
2023-08-07T12:59:11.573Z,2.90
2023-08-07T13:02:17.393Z,2.80
2023-08-07T13:04:50.187Z,3.80
2023-08-07T13:17:07.421Z,2.60
2023-08-07T13:22:52.439Z,2.70
2023-08-07T13:25:21.805Z,2.90
2023-08-07T13:32:12.172Z,2.90
2023-08-07T13:36:01.756Z,2.70
2023-08-07T13:39:51.019Z,2.80
2023-08-07T13:43:41.319Z,3.30
2023-08-07T13:47:22.109Z,3.00
2023-08-07T13:51:11.217Z,2.70
2023-08-07T13:54:52.297Z,2.70
2023-08-07T13:58:26.681Z,3.30
2023-08-07T14:02:08.752Z,2.90
2023-08-07T14:05:51.211Z,3.00
2023-08-07T14:09:40.924Z,3.30
2023-08-07T14:13:30.396Z,2.70
2023-08-07T14:17:12.454Z,3.10
2023-08-07T14:21:01.406Z,4.30
2023-08-07T14:27:53.117Z,2.80
2023-08-07T14:31:35.425Z,2.40
2023-08-07T14:35:10.880Z,2.50
2023-08-07T14:39:00.508Z,2.40
2023-08-07T14:42:31.485Z,2.20
2023-08-07T14:46:00.763Z,3.30
2023-08-07T14:49:38.920Z,2.60
2023-08-07T14:53:01.060Z,2.30
2023-08-07T14:56:49.360Z,4.50
2023-08-07T15:00:23.687Z,2.30
2023-08-07T15:20:00.002Z,2.40
2023-08-07T15:22:31.152Z,2.20
2023-08-07T15:25:00.501Z,2.90
2023-08-07T15:27:29.145Z,2.50
2023-08-07T15:29:57.917Z,2.10
2023-08-07T15:32:26.772Z,2.80
2023-08-07T15:40:21.043Z,1.80
2023-08-07T15:44:33.024Z,2.80
2023-08-07T15:48:42.531Z,1.90
2023-08-07T15:56:16.600Z,1.40
2023-08-07T16:00:06.050Z,2.80
2023-08-07T16:03:04.023Z,2.50
2023-08-07T16:06:46.359Z,2.00
2023-08-07T16:10:35.665Z,3.00
2023-08-07T16:14:14.393Z,2.70
2023-08-07T16:17:36.539Z,2.60
2023-08-07T16:20:55.031Z,3.20
2023-08-07T16:24:22.082Z,2.70
2023-08-07T16:28:13.285Z,2.30
2023-08-07T16:32:17.923Z,2.60
2023-08-07T16:36:00.815Z,3.20
2023-08-07T16:40:05.112Z,3.30
2023-08-07T16:43:19.682Z,3.90
2023-08-07T16:46:59.160Z,3.40
2023-08-07T16:51:07.367Z,3.30
2023-08-07T16:54:48.927Z,9.00
2023-08-07T16:58:29.922Z,11.90
2023-08-07T17:02:09.459Z,5.10
2023-08-07T17:05:58.727Z,7.50
2023-08-07T17:09:32.087Z,2.70
2023-08-07T17:13:22.691Z,3.20
2023-08-07T17:17:05.353Z,1.80
2023-08-07T17:25:43.457Z,3.50
2023-08-07T17:28:12.047Z,3.90
2023-08-07T17:30:40.635Z,4.80
2023-08-07T17:33:09.151Z,4.50
2023-08-07T17:35:37.629Z,4.30
2023-08-07T17:38:06.334Z,4.80
2023-08-07T17:40:34.851Z,5.30
2023-08-07T17:43:03.685Z,7.30
2023-08-07T17:45:32.430Z,6.30
2023-08-07T17:48:01.110Z,8.20
2023-08-07T17:50:29.894Z,6.00
2023-08-07T17:52:58.482Z,8.50
2023-08-07T17:56:22.255Z,5.60
2023-08-07T17:58:58.676Z,9.80
2023-08-07T18:01:30.969Z,6.80
2023-08-07T18:12:28.136Z,5.10
2023-08-07T18:16:18.420Z,7.20
2023-08-07T18:20:28.190Z,4.90
2023-08-07T18:53:00.921Z,3.90
2023-08-07T19:28:17.209Z,6.40
2023-08-07T19:30:59.912Z,4.80
2023-08-07T19:33:33.279Z,4.00
2023-08-07T19:36:02.010Z,6.50
2023-08-07T19:38:31.252Z,3.30
2023-08-07T19:41:00.559Z,2.60
2023-08-07T19:43:29.668Z,3.20
2023-08-07T19:45:58.495Z,2.50
2023-08-07T19:48:27.691Z,3.30
2023-08-07T19:50:56.952Z,2.70
2023-08-07T19:53:25.521Z,1.90
2023-08-07T19:56:31.372Z,2.40
2023-08-07T19:59:05.310Z,4.60
2023-08-07T20:01:34.365Z,1.90
2023-08-07T20:09:39.284Z,1.70
2023-08-07T20:12:08.229Z,2.30
2023-08-07T20:14:37.498Z,1.70
2023-08-07T20:17:07.552Z,1.90
2023-08-07T20:19:37.320Z,2.10
2023-08-07T20:22:06.526Z,2.90
2023-08-07T20:24:35.298Z,2.70
2023-08-07T20:27:04.074Z,2.10
2023-08-07T20:29:32.504Z,2.20
2023-08-07T20:32:02.806Z,2.20
2023-08-07T20:34:31.467Z,2.10
2023-08-07T20:37:00.709Z,1.80
2023-08-07T20:39:29.193Z,1.90
2023-08-07T20:41:57.938Z,1.50
2023-08-07T20:44:26.636Z,2.90
2023-08-07T20:46:55.348Z,2.90
2023-08-07T20:54:15.516Z,1.90
2023-08-07T20:56:44.610Z,4.10
2023-08-07T20:59:13.041Z,1.90
2023-08-07T21:01:44.805Z,1.80
2023-08-07T21:04:14.501Z,1.60
2023-08-07T21:06:43.143Z,1.90
2023-08-07T21:09:11.675Z,2.60
2023-08-07T21:11:40.358Z,2.80
2023-08-07T21:14:08.951Z,2.40
2023-08-07T21:16:37.756Z,1.50
2023-08-07T21:20:11.990Z,2.40
2023-08-07T21:23:13.198Z,1.20
2023-08-07T21:25:44.438Z,3.10
2023-08-07T21:28:12.919Z,2.20
2023-08-07T21:30:44.011Z,4.00
2023-08-07T21:33:12.746Z,3.70
2023-08-07T21:35:41.178Z,3.70
2023-08-07T21:38:09.624Z,4.90
2023-08-07T21:40:40.242Z,3.70
2023-08-07T21:43:08.769Z,3.90
2023-08-07T21:45:37.466Z,2.50
2023-08-07T21:48:06.475Z,2.20
2023-08-07T21:50:37.451Z,1.40
2023-08-07T21:53:06.120Z,2.70
2023-08-07T21:55:34.826Z,1.70
2023-08-07T21:58:03.388Z,2.20
2023-08-07T22:00:31.812Z,1.70
2023-08-07T22:03:10.703Z,1.90
2023-08-07T22:05:42.864Z,2.80
2023-08-07T22:09:12.451Z,3.20
2023-08-07T22:13:02.450Z,4.20
2023-08-07T22:16:52.133Z,1.40
2023-08-07T22:20:41.876Z,1.60
2023-08-07T22:23:31.845Z,3.70
2023-08-07T22:26:01.161Z,2.60
2023-08-07T22:28:29.641Z,1.50
2023-08-07T22:30:58.168Z,1.30
2023-08-07T22:33:26.880Z,2.10
2023-08-07T22:35:55.485Z,3.20
2023-08-07T22:42:47.050Z,2.90
2023-08-07T22:45:15.719Z,1.60
2023-08-07T22:47:44.202Z,1.20
2023-08-07T22:50:12.892Z,1.90
2023-08-07T22:52:44.298Z,1.80
2023-08-07T22:55:12.812Z,2.40
2023-08-07T22:58:26.302Z,2.60
2023-08-07T23:00:54.878Z,2.40
2023-08-07T23:03:23.450Z,1.30
2023-08-07T23:05:52.298Z,2.00
2023-08-07T23:08:56.783Z,2.20
2023-08-07T23:11:56.300Z,4.40
2023-08-07T23:14:25.172Z,1.60
2023-08-07T23:16:53.863Z,2.90
2023-08-07T23:19:22.435Z,3.10
2023-08-07T23:21:50.828Z,2.00
2023-08-07T23:24:19.395Z,2.10
2023-08-07T23:27:13.941Z,3.50
2023-08-07T23:29:43.102Z,1.50
2023-08-07T23:32:11.639Z,1.70
2023-08-07T23:34:40.102Z,2.00
2023-08-07T23:42:49.631Z,2.70
2023-08-07T23:47:22.546Z,2.60
2023-08-07T23:51:33.082Z,2.20
2023-08-07T23:55:16.869Z,1.40
